sensor_id;sensor_type;location;lat;lon;timestamp;P1;durP1;ratioP1;P2;durP2;ratioP2
2638;SDS011;1329;51.384;7.122;2023-07-16T00:02:11;1.50;;;1.38;;
2638;SDS011;1329;51.384;7.122;2023-07-16T00:04:38;2.40;;;1.42;;
2638;SDS011;1329;51.384;7.122;2023-07-16T00:07:06;2.17;;;1.33;;
2638;SDS011;1329;51.384;7.122;2023-07-16T00:09:38;1.35;;;1.25;;
2638;SDS011;1329;51.384;7.122;2023-07-16T00:12:05;1.80;;;1.50;;
2638;SDS011;1329;51.384;7.122;2023-07-16T00:14:33;1.67;;;1.35;;
2638;SDS011;1329;51.384;7.122;2023-07-16T00:17:01;1.63;;;1.52;;
2638;SDS011;1329;51.384;7.122;2023-07-16T00:19:28;1.30;;;1.20;;
2638;SDS011;1329;51.384;7.122;2023-07-16T00:21:55;1.95;;;1.40;;
2638;SDS011;1329;51.384;7.122;2023-07-16T00:24:26;1.77;;;1.40;;
2638;SDS011;1329;51.384;7.122;2023-07-16T00:26:54;1.80;;;1.70;;
2638;SDS011;1329;51.384;7.122;2023-07-16T00:29:20;1.27;;;1.17;;
2638;SDS011;1329;51.384;7.122;2023-07-16T00:31:47;1.50;;;1.40;;
2638;SDS011;1329;51.384;7.122;2023-07-16T00:34:17;2.20;;;1.40;;
2638;SDS011;1329;51.384;7.122;2023-07-16T00:36:44;1.75;;;1.33;;
2638;SDS011;1329;51.384;7.122;2023-07-16T00:39:11;1.75;;;1.50;;
2638;SDS011;1329;51.384;7.122;2023-07-16T00:41:40;2.55;;;1.30;;
2638;SDS011;1329;51.384;7.122;2023-07-16T00:44:07;2.55;;;1.60;;
2638;SDS011;1329;51.384;7.122;2023-07-16T00:46:34;1.73;;;1.50;;
2638;SDS011;1329;51.384;7.122;2023-07-16T00:49:01;1.73;;;1.30;;
2638;SDS011;1329;51.384;7.122;2023-07-16T00:51:28;2.00;;;1.52;;
2638;SDS011;1329;51.384;7.122;2023-07-16T00:53:56;1.95;;;1.58;;
2638;SDS011;1329;51.384;7.122;2023-07-16T00:56:23;1.88;;;1.40;;
2638;SDS011;1329;51.384;7.122;2023-07-16T00:58:51;1.50;;;1.40;;
2638;SDS011;1329;51.384;7.122;2023-07-16T01:01:18;1.65;;;1.20;;
2638;SDS011;1329;51.384;7.122;2023-07-16T01:03:45;1.80;;;1.30;;
2638;SDS011;1329;51.384;7.122;2023-07-16T01:06:13;1.67;;;1.30;;
2638;SDS011;1329;51.384;7.122;2023-07-16T01:08:45;2.63;;;1.45;;
2638;SDS011;1329;51.384;7.122;2023-07-16T01:11:15;2.30;;;1.48;;
2638;SDS011;1329;51.384;7.122;2023-07-16T01:13:42;2.78;;;1.55;;
2638;SDS011;1329;51.384;7.122;2023-07-16T01:16:19;1.98;;;1.42;;
2638;SDS011;1329;51.384;7.122;2023-07-16T01:18:46;4.00;;;1.42;;
2638;SDS011;1329;51.384;7.122;2023-07-16T01:21:13;1.45;;;1.30;;
2638;SDS011;1329;51.384;7.122;2023-07-16T01:23:50;3.40;;;1.30;;
2638;SDS011;1329;51.384;7.122;2023-07-16T01:26:39;3.05;;;1.40;;
2638;SDS011;1329;51.384;7.122;2023-07-16T01:29:25;2.33;;;1.30;;
2638;SDS011;1329;51.384;7.122;2023-07-16T01:31:55;1.95;;;1.17;;
2638;SDS011;1329;51.384;7.122;2023-07-16T01:34:26;2.00;;;1.30;;
2638;SDS011;1329;51.384;7.122;2023-07-16T01:36:58;2.55;;;1.38;;
2638;SDS011;1329;51.384;7.122;2023-07-16T01:39:25;1.92;;;1.23;;
2638;SDS011;1329;51.384;7.122;2023-07-16T01:41:52;1.63;;;1.23;;
2638;SDS011;1329;51.384;7.122;2023-07-16T01:44:19;2.08;;;1.33;;
2638;SDS011;1329;51.384;7.122;2023-07-16T01:46:49;2.38;;;1.60;;
2638;SDS011;1329;51.384;7.122;2023-07-16T01:49:31;2.33;;;1.50;;
2638;SDS011;1329;51.384;7.122;2023-07-16T01:51:59;2.28;;;1.23;;
2638;SDS011;1329;51.384;7.122;2023-07-16T01:54:28;2.58;;;1.50;;
2638;SDS011;1329;51.384;7.122;2023-07-16T01:56:55;1.58;;;1.23;;
2638;SDS011;1329;51.384;7.122;2023-07-16T01:59:21;3.13;;;1.15;;
2638;SDS011;1329;51.384;7.122;2023-07-16T02:01:50;2.58;;;1.25;;
2638;SDS011;1329;51.384;7.122;2023-07-16T02:04:17;2.17;;;1.55;;
2638;SDS011;1329;51.384;7.122;2023-07-16T02:06:43;2.17;;;1.33;;
2638;SDS011;1329;51.384;7.122;2023-07-16T02:09:10;1.92;;;1.30;;
2638;SDS011;1329;51.384;7.122;2023-07-16T02:11:37;1.77;;;1.35;;
2638;SDS011;1329;51.384;7.122;2023-07-16T02:14:04;2.67;;;1.88;;
2638;SDS011;1329;51.384;7.122;2023-07-16T02:16:31;2.63;;;1.50;;
2638;SDS011;1329;51.384;7.122;2023-07-16T02:18:59;1.67;;;1.38;;
2638;SDS011;1329;51.384;7.122;2023-07-16T02:21:26;3.08;;;1.38;;
2638;SDS011;1329;51.384;7.122;2023-07-16T02:23:53;2.17;;;1.63;;
2638;SDS011;1329;51.384;7.122;2023-07-16T02:26:20;3.35;;;1.42;;
2638;SDS011;1329;51.384;7.122;2023-07-16T02:28:47;1.48;;;1.30;;
2638;SDS011;1329;51.384;7.122;2023-07-16T02:31:14;2.80;;;1.30;;
2638;SDS011;1329;51.384;7.122;2023-07-16T02:33:41;2.42;;;1.30;;
2638;SDS011;1329;51.384;7.122;2023-07-16T02:36:10;2.30;;;1.70;;
2638;SDS011;1329;51.384;7.122;2023-07-16T02:38:37;1.98;;;1.50;;
2638;SDS011;1329;51.384;7.122;2023-07-16T02:41:04;2.22;;;1.50;;
2638;SDS011;1329;51.384;7.122;2023-07-16T02:43:30;3.00;;;1.58;;
2638;SDS011;1329;51.384;7.122;2023-07-16T02:45:57;2.63;;;1.48;;
2638;SDS011;1329;51.384;7.122;2023-07-16T02:48:24;2.70;;;1.40;;
2638;SDS011;1329;51.384;7.122;2023-07-16T02:50:51;2.67;;;1.58;;
2638;SDS011;1329;51.384;7.122;2023-07-16T02:53:19;3.50;;;1.58;;
2638;SDS011;1329;51.384;7.122;2023-07-16T02:55:46;2.75;;;1.40;;
2638;SDS011;1329;51.384;7.122;2023-07-16T02:58:13;1.75;;;1.05;;
2638;SDS011;1329;51.384;7.122;2023-07-16T03:00:40;2.63;;;1.50;;
2638;SDS011;1329;51.384;7.122;2023-07-16T03:03:07;2.72;;;1.40;;
2638;SDS011;1329;51.384;7.122;2023-07-16T03:05:34;2.70;;;1.50;;
2638;SDS011;1329;51.384;7.122;2023-07-16T03:08:01;3.38;;;1.60;;
2638;SDS011;1329;51.384;7.122;2023-07-16T03:10:29;1.83;;;1.40;;
2638;SDS011;1329;51.384;7.122;2023-07-16T03:12:56;2.53;;;1.60;;
2638;SDS011;1329;51.384;7.122;2023-07-16T03:15:23;3.08;;;1.50;;
2638;SDS011;1329;51.384;7.122;2023-07-16T03:17:50;2.97;;;1.45;;
2638;SDS011;1329;51.384;7.122;2023-07-16T03:20:17;3.03;;;1.70;;
2638;SDS011;1329;51.384;7.122;2023-07-16T03:22:44;3.60;;;1.63;;
2638;SDS011;1329;51.384;7.122;2023-07-16T03:25:11;4.13;;;1.48;;
2638;SDS011;1329;51.384;7.122;2023-07-16T03:27:40;2.22;;;1.50;;
2638;SDS011;1329;51.384;7.122;2023-07-16T03:30:07;1.50;;;1.40;;
2638;SDS011;1329;51.384;7.122;2023-07-16T03:32:35;1.67;;;1.30;;
2638;SDS011;1329;51.384;7.122;2023-07-16T03:35:02;2.88;;;1.50;;
2638;SDS011;1329;51.384;7.122;2023-07-16T03:37:31;2.40;;;1.50;;
2638;SDS011;1329;51.384;7.122;2023-07-16T03:40:01;2.30;;;1.50;;
2638;SDS011;1329;51.384;7.122;2023-07-16T03:42:41;1.95;;;1.50;;
2638;SDS011;1329;51.384;7.122;2023-07-16T03:45:08;1.52;;;1.30;;
2638;SDS011;1329;51.384;7.122;2023-07-16T03:47:35;2.20;;;1.40;;
2638;SDS011;1329;51.384;7.122;2023-07-16T03:50:03;2.80;;;1.58;;
2638;SDS011;1329;51.384;7.122;2023-07-16T03:52:31;3.05;;;1.58;;
2638;SDS011;1329;51.384;7.122;2023-07-16T03:54:58;1.63;;;1.50;;
2638;SDS011;1329;51.384;7.122;2023-07-16T03:57:25;2.55;;;1.65;;
2638;SDS011;1329;51.384;7.122;2023-07-16T03:59:55;3.17;;;1.85;;
2638;SDS011;1329;51.384;7.122;2023-07-16T04:02:23;2.75;;;1.73;;
2638;SDS011;1329;51.384;7.122;2023-07-16T04:04:50;2.30;;;1.48;;
2638;SDS011;1329;51.384;7.122;2023-07-16T04:07:17;3.22;;;1.80;;
2638;SDS011;1329;51.384;7.122;2023-07-16T04:09:44;3.42;;;1.63;;
2638;SDS011;1329;51.384;7.122;2023-07-16T04:12:11;4.60;;;1.60;;
2638;SDS011;1329;51.384;7.122;2023-07-16T04:14:38;3.50;;;1.80;;
2638;SDS011;1329;51.384;7.122;2023-07-16T04:17:06;1.88;;;1.60;;
2638;SDS011;1329;51.384;7.122;2023-07-16T04:19:33;1.95;;;1.40;;
2638;SDS011;1329;51.384;7.122;2023-07-16T04:22:00;3.05;;;1.63;;
2638;SDS011;1329;51.384;7.122;2023-07-16T04:24:27;1.92;;;1.58;;
2638;SDS011;1329;51.384;7.122;2023-07-16T04:26:54;1.90;;;1.60;;
2638;SDS011;1329;51.384;7.122;2023-07-16T04:29:21;2.72;;;1.80;;
2638;SDS011;1329;51.384;7.122;2023-07-16T04:31:48;3.10;;;1.63;;
2638;SDS011;1329;51.384;7.122;2023-07-16T04:34:17;3.17;;;1.60;;
2638;SDS011;1329;51.384;7.122;2023-07-16T04:36:44;2.60;;;1.80;;
2638;SDS011;1329;51.384;7.122;2023-07-16T04:39:11;3.53;;;1.88;;
2638;SDS011;1329;51.384;7.122;2023-07-16T04:41:38;3.00;;;1.60;;
2638;SDS011;1329;51.384;7.122;2023-07-16T04:44:05;2.22;;;1.50;;
2638;SDS011;1329;51.384;7.122;2023-07-16T04:46:32;3.80;;;1.98;;
2638;SDS011;1329;51.384;7.122;2023-07-16T04:48:59;3.05;;;1.90;;
2638;SDS011;1329;51.384;7.122;2023-07-16T04:51:28;3.08;;;1.90;;
2638;SDS011;1329;51.384;7.122;2023-07-16T04:53:55;2.95;;;2.00;;
2638;SDS011;1329;51.384;7.122;2023-07-16T04:56:22;2.55;;;1.90;;
2638;SDS011;1329;51.384;7.122;2023-07-16T04:58:49;4.28;;;1.88;;
2638;SDS011;1329;51.384;7.122;2023-07-16T05:01:16;6.00;;;2.05;;
2638;SDS011;1329;51.384;7.122;2023-07-16T05:03:43;3.33;;;1.95;;
2638;SDS011;1329;51.384;7.122;2023-07-16T05:06:09;7.30;;;2.15;;
2638;SDS011;1329;51.384;7.122;2023-07-16T05:08:38;3.25;;;2.00;;
2638;SDS011;1329;51.384;7.122;2023-07-16T05:11:04;5.07;;;2.20;;
2638;SDS011;1329;51.384;7.122;2023-07-16T05:13:31;2.97;;;1.67;;
2638;SDS011;1329;51.384;7.122;2023-07-16T05:15:58;3.60;;;1.90;;
2638;SDS011;1329;51.384;7.122;2023-07-16T05:18:25;4.00;;;2.03;;
2638;SDS011;1329;51.384;7.122;2023-07-16T05:20:52;3.05;;;2.13;;
2638;SDS011;1329;51.384;7.122;2023-07-16T05:23:19;5.68;;;2.25;;
2638;SDS011;1329;51.384;7.122;2023-07-16T05:25:48;3.50;;;2.00;;
2638;SDS011;1329;51.384;7.122;2023-07-16T05:28:16;2.65;;;1.80;;
2638;SDS011;1329;51.384;7.122;2023-07-16T05:30:44;3.00;;;1.95;;
2638;SDS011;1329;51.384;7.122;2023-07-16T05:33:11;3.78;;;2.25;;
2638;SDS011;1329;51.384;7.122;2023-07-16T05:35:38;4.68;;;1.95;;
2638;SDS011;1329;51.384;7.122;2023-07-16T05:38:06;3.67;;;2.00;;
2638;SDS011;1329;51.384;7.122;2023-07-16T05:40:33;4.00;;;2.13;;
2638;SDS011;1329;51.384;7.122;2023-07-16T05:43:01;3.25;;;2.00;;
2638;SDS011;1329;51.384;7.122;2023-07-16T05:45:29;3.25;;;2.00;;
2638;SDS011;1329;51.384;7.122;2023-07-16T05:47:55;4.30;;;2.20;;
2638;SDS011;1329;51.384;7.122;2023-07-16T05:50:22;4.15;;;2.33;;
2638;SDS011;1329;51.384;7.122;2023-07-16T05:52:49;3.78;;;1.92;;
2638;SDS011;1329;51.384;7.122;2023-07-16T05:55:16;3.22;;;2.00;;
2638;SDS011;1329;51.384;7.122;2023-07-16T05:57:43;3.42;;;2.80;;
2638;SDS011;1329;51.384;7.122;2023-07-16T06:00:14;3.10;;;2.30;;
2638;SDS011;1329;51.384;7.122;2023-07-16T06:02:41;4.03;;;2.20;;
2638;SDS011;1329;51.384;7.122;2023-07-16T06:05:09;4.18;;;2.22;;
2638;SDS011;1329;51.384;7.122;2023-07-16T06:07:36;3.30;;;2.38;;
2638;SDS011;1329;51.384;7.122;2023-07-16T06:10:03;5.10;;;2.67;;
2638;SDS011;1329;51.384;7.122;2023-07-16T06:12:31;4.05;;;2.67;;
2638;SDS011;1329;51.384;7.122;2023-07-16T06:14:58;4.95;;;3.10;;
2638;SDS011;1329;51.384;7.122;2023-07-16T06:17:26;4.57;;;3.00;;
2638;SDS011;1329;51.384;7.122;2023-07-16T06:19:53;3.38;;;2.53;;
2638;SDS011;1329;51.384;7.122;2023-07-16T06:22:20;5.07;;;2.85;;
2638;SDS011;1329;51.384;7.122;2023-07-16T06:24:47;4.38;;;3.10;;
2638;SDS011;1329;51.384;7.122;2023-07-16T06:27:14;4.28;;;2.90;;
2638;SDS011;1329;51.384;7.122;2023-07-16T06:29:41;3.35;;;2.53;;
2638;SDS011;1329;51.384;7.122;2023-07-16T06:32:09;6.57;;;3.00;;
2638;SDS011;1329;51.384;7.122;2023-07-16T06:34:37;5.82;;;3.03;;
2638;SDS011;1329;51.384;7.122;2023-07-16T06:37:05;4.63;;;3.08;;
2638;SDS011;1329;51.384;7.122;2023-07-16T06:39:32;6.30;;;3.08;;
2638;SDS011;1329;51.384;7.122;2023-07-16T06:41:59;7.00;;;3.33;;
2638;SDS011;1329;51.384;7.122;2023-07-16T06:44:26;6.75;;;3.00;;
2638;SDS011;1329;51.384;7.122;2023-07-16T06:46:53;4.45;;;2.95;;
2638;SDS011;1329;51.384;7.122;2023-07-16T06:49:21;3.42;;;3.13;;
2638;SDS011;1329;51.384;7.122;2023-07-16T06:51:49;5.30;;;3.25;;
2638;SDS011;1329;51.384;7.122;2023-07-16T06:54:16;4.68;;;3.08;;
2638;SDS011;1329;51.384;7.122;2023-07-16T06:56:43;3.88;;;3.10;;
2638;SDS011;1329;51.384;7.122;2023-07-16T06:59:10;4.25;;;3.25;;
2638;SDS011;1329;51.384;7.122;2023-07-16T07:01:37;3.92;;;3.33;;
2638;SDS011;1329;51.384;7.122;2023-07-16T07:04:04;5.80;;;3.10;;
2638;SDS011;1329;51.384;7.122;2023-07-16T07:06:31;5.28;;;3.40;;
2638;SDS011;1329;51.384;7.122;2023-07-16T07:08:59;4.75;;;3.17;;
2638;SDS011;1329;51.384;7.122;2023-07-16T07:11:27;5.13;;;3.53;;
2638;SDS011;1329;51.384;7.122;2023-07-16T07:13:54;4.93;;;3.47;;
2638;SDS011;1329;51.384;7.122;2023-07-16T07:16:22;5.18;;;3.10;;
2638;SDS011;1329;51.384;7.122;2023-07-16T07:18:49;6.05;;;3.10;;
2638;SDS011;1329;51.384;7.122;2023-07-16T07:21:16;3.65;;;3.03;;
2638;SDS011;1329;51.384;7.122;2023-07-16T07:23:43;4.95;;;3.53;;
2638;SDS011;1329;51.384;7.122;2023-07-16T07:26:11;5.05;;;3.20;;
2638;SDS011;1329;51.384;7.122;2023-07-16T07:28:38;4.90;;;3.47;;
2638;SDS011;1329;51.384;7.122;2023-07-16T07:31:05;4.68;;;3.17;;
2638;SDS011;1329;51.384;7.122;2023-07-16T07:33:32;4.45;;;3.13;;
2638;SDS011;1329;51.384;7.122;2023-07-16T07:35:59;5.85;;;3.50;;
2638;SDS011;1329;51.384;7.122;2023-07-16T07:38:26;3.88;;;3.42;;
2638;SDS011;1329;51.384;7.122;2023-07-16T07:40:53;5.90;;;3.50;;
2638;SDS011;1329;51.384;7.122;2023-07-16T07:43:21;6.40;;;3.90;;
2638;SDS011;1329;51.384;7.122;2023-07-16T07:45:48;5.50;;;3.90;;
2638;SDS011;1329;51.384;7.122;2023-07-16T07:48:15;7.15;;;3.90;;
2638;SDS011;1329;51.384;7.122;2023-07-16T07:50:42;5.22;;;3.60;;
2638;SDS011;1329;51.384;7.122;2023-07-16T07:53:09;4.78;;;3.60;;
2638;SDS011;1329;51.384;7.122;2023-07-16T07:55:36;4.40;;;3.30;;
2638;SDS011;1329;51.384;7.122;2023-07-16T07:58:03;5.22;;;3.28;;
2638;SDS011;1329;51.384;7.122;2023-07-16T08:00:31;5.30;;;3.42;;
2638;SDS011;1329;51.384;7.122;2023-07-16T08:02:58;4.72;;;3.33;;
2638;SDS011;1329;51.384;7.122;2023-07-16T08:05:25;3.90;;;3.50;;
2638;SDS011;1329;51.384;7.122;2023-07-16T08:07:52;4.93;;;3.65;;
2638;SDS011;1329;51.384;7.122;2023-07-16T08:10:20;5.20;;;3.53;;
2638;SDS011;1329;51.384;7.122;2023-07-16T08:12:47;6.35;;;4.07;;
2638;SDS011;1329;51.384;7.122;2023-07-16T08:15:14;4.15;;;3.60;;
2638;SDS011;1329;51.384;7.122;2023-07-16T08:17:43;4.80;;;3.67;;
2638;SDS011;1329;51.384;7.122;2023-07-16T08:20:11;3.72;;;3.22;;
2638;SDS011;1329;51.384;7.122;2023-07-16T08:22:38;4.93;;;3.45;;
2638;SDS011;1329;51.384;7.122;2023-07-16T08:25:06;5.88;;;3.88;;
2638;SDS011;1329;51.384;7.122;2023-07-16T08:27:34;6.10;;;3.70;;
2638;SDS011;1329;51.384;7.122;2023-07-16T08:30:01;5.68;;;3.58;;
2638;SDS011;1329;51.384;7.122;2023-07-16T08:32:28;3.60;;;3.05;;
2638;SDS011;1329;51.384;7.122;2023-07-16T08:34:57;4.85;;;3.47;;
2638;SDS011;1329;51.384;7.122;2023-07-16T08:37:23;4.95;;;3.92;;
2638;SDS011;1329;51.384;7.122;2023-07-16T08:39:51;5.13;;;3.78;;
2638;SDS011;1329;51.384;7.122;2023-07-16T08:42:18;5.53;;;3.60;;
2638;SDS011;1329;51.384;7.122;2023-07-16T08:44:46;4.85;;;3.28;;
2638;SDS011;1329;51.384;7.122;2023-07-16T08:47:14;4.68;;;3.95;;
2638;SDS011;1329;51.384;7.122;2023-07-16T08:49:41;5.95;;;3.30;;
2638;SDS011;1329;51.384;7.122;2023-07-16T08:52:22;4.43;;;2.85;;
2638;SDS011;1329;51.384;7.122;2023-07-16T08:54:50;4.10;;;3.03;;
2638;SDS011;1329;51.384;7.122;2023-07-16T08:57:17;6.07;;;3.15;;
2638;SDS011;1329;51.384;7.122;2023-07-16T08:59:46;4.10;;;3.15;;
2638;SDS011;1329;51.384;7.122;2023-07-16T09:02:15;4.93;;;3.22;;
2638;SDS011;1329;51.384;7.122;2023-07-16T09:04:43;5.68;;;2.90;;
2638;SDS011;1329;51.384;7.122;2023-07-16T09:07:10;3.58;;;3.03;;
2638;SDS011;1329;51.384;7.122;2023-07-16T09:09:38;5.60;;;3.10;;
2638;SDS011;1329;51.384;7.122;2023-07-16T09:12:06;4.20;;;3.00;;
2638;SDS011;1329;51.384;7.122;2023-07-16T09:14:37;4.78;;;3.05;;
2638;SDS011;1329;51.384;7.122;2023-07-16T09:17:06;5.10;;;3.40;;
2638;SDS011;1329;51.384;7.122;2023-07-16T09:19:33;3.25;;;2.72;;
2638;SDS011;1329;51.384;7.122;2023-07-16T09:22:00;3.45;;;2.75;;
2638;SDS011;1329;51.384;7.122;2023-07-16T09:24:28;5.93;;;3.42;;
2638;SDS011;1329;51.384;7.122;2023-07-16T09:26:57;5.30;;;3.70;;
2638;SDS011;1329;51.384;7.122;2023-07-16T09:29:26;4.72;;;3.17;;
2638;SDS011;1329;51.384;7.122;2023-07-16T09:31:54;4.90;;;2.92;;
2638;SDS011;1329;51.384;7.122;2023-07-16T09:34:21;4.70;;;3.00;;
2638;SDS011;1329;51.384;7.122;2023-07-16T09:36:49;4.82;;;3.20;;
2638;SDS011;1329;51.384;7.122;2023-07-16T09:39:16;4.07;;;2.95;;
2638;SDS011;1329;51.384;7.122;2023-07-16T09:41:44;4.45;;;3.10;;
2638;SDS011;1329;51.384;7.122;2023-07-16T09:44:14;4.97;;;3.10;;
2638;SDS011;1329;51.384;7.122;2023-07-16T09:46:43;4.78;;;2.92;;
2638;SDS011;1329;51.384;7.122;2023-07-16T09:49:11;4.72;;;2.88;;
2638;SDS011;1329;51.384;7.122;2023-07-16T09:51:40;3.38;;;2.80;;
2638;SDS011;1329;51.384;7.122;2023-07-16T09:54:09;3.40;;;2.83;;
2638;SDS011;1329;51.384;7.122;2023-07-16T09:56:40;3.40;;;2.90;;
2638;SDS011;1329;51.384;7.122;2023-07-16T09:59:11;4.93;;;3.00;;
2638;SDS011;1329;51.384;7.122;2023-07-16T10:01:42;3.80;;;2.90;;
2638;SDS011;1329;51.384;7.122;2023-07-16T10:04:11;3.80;;;2.83;;
2638;SDS011;1329;51.384;7.122;2023-07-16T10:06:49;3.72;;;3.08;;
2638;SDS011;1329;51.384;7.122;2023-07-16T10:09:34;3.63;;;3.10;;
2638;SDS011;1329;51.384;7.122;2023-07-16T10:12:12;3.38;;;2.75;;
2638;SDS011;1329;51.384;7.122;2023-07-16T10:14:42;3.22;;;2.92;;
2638;SDS011;1329;51.384;7.122;2023-07-16T10:17:14;4.70;;;3.00;;
2638;SDS011;1329;51.384;7.122;2023-07-16T10:19:45;2.72;;;2.50;;
2638;SDS011;1329;51.384;7.122;2023-07-16T10:22:17;3.42;;;3.05;;
2638;SDS011;1329;51.384;7.122;2023-07-16T10:24:51;4.47;;;2.90;;
2638;SDS011;1329;51.384;7.122;2023-07-16T10:27:28;4.22;;;3.00;;
2638;SDS011;1329;51.384;7.122;2023-07-16T10:30:00;5.10;;;3.35;;
2638;SDS011;1329;51.384;7.122;2023-07-16T10:32:30;3.60;;;2.53;;
2638;SDS011;1329;51.384;7.122;2023-07-16T10:34:59;3.05;;;2.60;;
2638;SDS011;1329;51.384;7.122;2023-07-16T10:37:27;3.47;;;2.50;;
2638;SDS011;1329;51.384;7.122;2023-07-16T10:39:55;3.20;;;2.75;;
2638;SDS011;1329;51.384;7.122;2023-07-16T10:42:25;4.05;;;2.75;;
2638;SDS011;1329;51.384;7.122;2023-07-16T10:44:54;3.92;;;2.75;;
2638;SDS011;1329;51.384;7.122;2023-07-16T10:47:28;3.42;;;2.75;;
2638;SDS011;1329;51.384;7.122;2023-07-16T10:49:57;3.25;;;2.47;;
2638;SDS011;1329;51.384;7.122;2023-07-16T10:52:25;3.60;;;2.55;;
2638;SDS011;1329;51.384;7.122;2023-07-16T10:54:52;4.40;;;2.50;;
2638;SDS011;1329;51.384;7.122;2023-07-16T10:57:19;3.40;;;2.40;;
2638;SDS011;1329;51.384;7.122;2023-07-16T10:59:47;3.95;;;2.53;;
2638;SDS011;1329;51.384;7.122;2023-07-16T11:02:15;2.42;;;2.22;;
2638;SDS011;1329;51.384;7.122;2023-07-16T11:04:45;3.58;;;2.55;;
2638;SDS011;1329;51.384;7.122;2023-07-16T11:07:13;3.05;;;2.40;;
2638;SDS011;1329;51.384;7.122;2023-07-16T11:09:41;4.68;;;2.47;;
2638;SDS011;1329;51.384;7.122;2023-07-16T11:12:09;5.13;;;2.30;;
2638;SDS011;1329;51.384;7.122;2023-07-16T11:14:38;3.53;;;2.72;;
2638;SDS011;1329;51.384;7.122;2023-07-16T11:17:10;3.30;;;2.33;;
2638;SDS011;1329;51.384;7.122;2023-07-16T11:19:38;3.88;;;2.75;;
2638;SDS011;1329;51.384;7.122;2023-07-16T11:22:09;3.88;;;2.72;;
2638;SDS011;1329;51.384;7.122;2023-07-16T11:24:37;2.65;;;2.40;;
2638;SDS011;1329;51.384;7.122;2023-07-16T11:27:06;2.63;;;2.42;;
2638;SDS011;1329;51.384;7.122;2023-07-16T11:29:39;3.47;;;2.38;;
2638;SDS011;1329;51.384;7.122;2023-07-16T11:32:10;3.15;;;2.45;;
2638;SDS011;1329;51.384;7.122;2023-07-16T11:34:38;2.88;;;2.42;;
2638;SDS011;1329;51.384;7.122;2023-07-16T11:37:19;2.80;;;2.50;;
2638;SDS011;1329;51.384;7.122;2023-07-16T11:39:47;2.70;;;2.25;;
2638;SDS011;1329;51.384;7.122;2023-07-16T11:42:14;4.03;;;2.70;;
2638;SDS011;1329;51.384;7.122;2023-07-16T11:44:49;3.25;;;2.25;;
2638;SDS011;1329;51.384;7.122;2023-07-16T11:47:16;2.63;;;2.25;;
2638;SDS011;1329;51.384;7.122;2023-07-16T11:49:44;3.03;;;2.38;;
2638;SDS011;1329;51.384;7.122;2023-07-16T11:52:11;2.40;;;2.20;;
2638;SDS011;1329;51.384;7.122;2023-07-16T11:54:39;3.10;;;2.80;;
2638;SDS011;1329;51.384;7.122;2023-07-16T11:57:06;3.20;;;2.58;;
2638;SDS011;1329;51.384;7.122;2023-07-16T11:59:33;3.45;;;2.30;;
2638;SDS011;1329;51.384;7.122;2023-07-16T12:02:00;2.60;;;2.40;;
2638;SDS011;1329;51.384;7.122;2023-07-16T12:04:28;3.40;;;2.90;;
2638;SDS011;1329;51.384;7.122;2023-07-16T12:06:55;4.65;;;2.95;;
2638;SDS011;1329;51.384;7.122;2023-07-16T12:09:22;3.90;;;2.40;;
2638;SDS011;1329;51.384;7.122;2023-07-16T12:11:50;4.13;;;2.75;;
2638;SDS011;1329;51.384;7.122;2023-07-16T12:14:17;2.90;;;2.40;;
2638;SDS011;1329;51.384;7.122;2023-07-16T12:16:44;3.90;;;2.72;;
2638;SDS011;1329;51.384;7.122;2023-07-16T12:19:11;3.45;;;2.38;;
2638;SDS011;1329;51.384;7.122;2023-07-16T12:21:38;3.42;;;2.40;;
2638;SDS011;1329;51.384;7.122;2023-07-16T12:24:05;3.70;;;2.58;;
2638;SDS011;1329;51.384;7.122;2023-07-16T12:26:32;4.40;;;2.40;;
2638;SDS011;1329;51.384;7.122;2023-07-16T12:29:01;3.33;;;2.60;;
2638;SDS011;1329;51.384;7.122;2023-07-16T12:31:29;3.83;;;2.70;;
2638;SDS011;1329;51.384;7.122;2023-07-16T12:33:56;3.13;;;2.42;;
2638;SDS011;1329;51.384;7.122;2023-07-16T12:36:24;2.50;;;2.22;;
2638;SDS011;1329;51.384;7.122;2023-07-16T12:38:51;2.67;;;2.20;;
2638;SDS011;1329;51.384;7.122;2023-07-16T12:41:17;3.47;;;2.22;;
2638;SDS011;1329;51.384;7.122;2023-07-16T12:43:45;3.72;;;2.25;;
2638;SDS011;1329;51.384;7.122;2023-07-16T12:46:14;2.22;;;2.03;;
2638;SDS011;1329;51.384;7.122;2023-07-16T12:48:41;2.97;;;2.40;;
2638;SDS011;1329;51.384;7.122;2023-07-16T12:51:08;3.88;;;2.50;;
2638;SDS011;1329;51.384;7.122;2023-07-16T12:53:35;3.22;;;2.30;;
2638;SDS011;1329;51.384;7.122;2023-07-16T12:56:03;3.13;;;2.35;;
2638;SDS011;1329;51.384;7.122;2023-07-16T12:58:31;3.38;;;2.65;;
2638;SDS011;1329;51.384;7.122;2023-07-16T13:00:57;3.80;;;2.30;;
2638;SDS011;1329;51.384;7.122;2023-07-16T13:03:28;3.22;;;2.42;;
2638;SDS011;1329;51.384;7.122;2023-07-16T13:05:55;3.30;;;2.65;;
2638;SDS011;1329;51.384;7.122;2023-07-16T13:08:22;3.47;;;2.35;;
2638;SDS011;1329;51.384;7.122;2023-07-16T13:10:49;2.85;;;2.20;;
2638;SDS011;1329;51.384;7.122;2023-07-16T13:13:16;3.63;;;2.60;;
2638;SDS011;1329;51.384;7.122;2023-07-16T13:15:42;3.85;;;2.38;;
2638;SDS011;1329;51.384;7.122;2023-07-16T13:18:10;4.10;;;2.40;;
2638;SDS011;1329;51.384;7.122;2023-07-16T13:20:38;2.83;;;2.40;;
2638;SDS011;1329;51.384;7.122;2023-07-16T13:23:05;3.20;;;2.40;;
2638;SDS011;1329;51.384;7.122;2023-07-16T13:25:33;3.65;;;2.40;;
2638;SDS011;1329;51.384;7.122;2023-07-16T13:28:00;2.65;;;2.40;;
2638;SDS011;1329;51.384;7.122;2023-07-16T13:30:28;4.57;;;2.70;;
2638;SDS011;1329;51.384;7.122;2023-07-16T13:32:55;2.85;;;2.30;;
2638;SDS011;1329;51.384;7.122;2023-07-16T13:35:21;2.92;;;2.30;;
2638;SDS011;1329;51.384;7.122;2023-07-16T13:37:50;2.70;;;2.33;;
2638;SDS011;1329;51.384;7.122;2023-07-16T13:40:17;3.33;;;2.60;;
2638;SDS011;1329;51.384;7.122;2023-07-16T13:42:45;4.10;;;2.50;;
2638;SDS011;1329;51.384;7.122;2023-07-16T13:45:11;3.38;;;2.60;;
2638;SDS011;1329;51.384;7.122;2023-07-16T13:47:38;3.58;;;2.63;;
2638;SDS011;1329;51.384;7.122;2023-07-16T13:50:05;4.10;;;2.45;;
2638;SDS011;1329;51.384;7.122;2023-07-16T13:52:33;2.80;;;2.60;;
2638;SDS011;1329;51.384;7.122;2023-07-16T13:55:01;2.78;;;2.28;;
2638;SDS011;1329;51.384;7.122;2023-07-16T13:57:29;3.30;;;2.38;;
2638;SDS011;1329;51.384;7.122;2023-07-16T13:59:56;3.47;;;2.35;;
2638;SDS011;1329;51.384;7.122;2023-07-16T14:02:23;4.07;;;2.70;;
2638;SDS011;1329;51.384;7.122;2023-07-16T14:04:50;4.72;;;2.70;;
2638;SDS011;1329;51.384;7.122;2023-07-16T14:07:17;3.30;;;2.60;;
2638;SDS011;1329;51.384;7.122;2023-07-16T14:09:43;3.97;;;2.65;;
2638;SDS011;1329;51.384;7.122;2023-07-16T14:12:12;4.18;;;2.65;;
2638;SDS011;1329;51.384;7.122;2023-07-16T14:14:38;4.93;;;2.45;;
2638;SDS011;1329;51.384;7.122;2023-07-16T14:17:05;4.43;;;2.78;;
2638;SDS011;1329;51.384;7.122;2023-07-16T14:19:32;4.30;;;2.40;;
2638;SDS011;1329;51.384;7.122;2023-07-16T14:21:59;4.50;;;2.72;;
2638;SDS011;1329;51.384;7.122;2023-07-16T14:24:26;3.70;;;2.60;;
2638;SDS011;1329;51.384;7.122;2023-07-16T14:26:53;4.00;;;2.95;;
2638;SDS011;1329;51.384;7.122;2023-07-16T14:29:25;3.92;;;2.85;;
2638;SDS011;1329;51.384;7.122;2023-07-16T14:31:54;3.75;;;2.75;;
2638;SDS011;1329;51.384;7.122;2023-07-16T14:34:21;2.80;;;2.47;;
2638;SDS011;1329;51.384;7.122;2023-07-16T14:36:48;3.95;;;2.78;;
2638;SDS011;1329;51.384;7.122;2023-07-16T14:39:15;3.35;;;2.78;;
2638;SDS011;1329;51.384;7.122;2023-07-16T14:41:42;3.20;;;2.70;;
2638;SDS011;1329;51.384;7.122;2023-07-16T14:44:10;3.50;;;2.78;;
2638;SDS011;1329;51.384;7.122;2023-07-16T14:46:38;3.30;;;2.63;;
2638;SDS011;1329;51.384;7.122;2023-07-16T14:49:10;3.42;;;2.88;;
2638;SDS011;1329;51.384;7.122;2023-07-16T14:51:37;4.50;;;2.80;;
2638;SDS011;1329;51.384;7.122;2023-07-16T14:54:05;3.70;;;2.67;;
2638;SDS011;1329;51.384;7.122;2023-07-16T14:56:33;3.38;;;2.67;;
2638;SDS011;1329;51.384;7.122;2023-07-16T14:59:00;2.78;;;2.22;;
2638;SDS011;1329;51.384;7.122;2023-07-16T15:01:27;4.03;;;2.63;;
2638;SDS011;1329;51.384;7.122;2023-07-16T15:03:56;2.53;;;2.30;;
2638;SDS011;1329;51.384;7.122;2023-07-16T15:06:23;2.53;;;2.30;;
2638;SDS011;1329;51.384;7.122;2023-07-16T15:08:50;4.03;;;2.60;;
2638;SDS011;1329;51.384;7.122;2023-07-16T15:11:17;2.75;;;2.45;;
2638;SDS011;1329;51.384;7.122;2023-07-16T15:13:44;3.72;;;2.50;;
2638;SDS011;1329;51.384;7.122;2023-07-16T15:16:11;2.63;;;2.40;;
2638;SDS011;1329;51.384;7.122;2023-07-16T15:18:39;3.00;;;2.00;;
2638;SDS011;1329;51.384;7.122;2023-07-16T15:21:11;2.97;;;1.98;;